Time;durP1;ratioP1;P1;durP2;ratioP2;P2;SDS_P1;SDS_P2;PMS_P1;PMS_P2;Temp;Humidity;BMP_temperature;BMP_pressure;BME280_temperature;BME280_humidity;BME280_pressure;Samples;Min_cycle;Max_cycle;Signal;HPM_P1;HPM_P2
2023/09/12 00:02:22;;;;;;;14.10;12.70;;;;;;;;;;107737;297;43851;-37
2023/09/12 00:04:58;;;;;;;14.50;13.10;;;;;;;;;;107725;297;47734;-37
2023/09/12 00:07:36;;;;;;;14.10;12.80;;;;;;;;;;107761;297;39835;-37
2023/09/12 00:10:11;;;;;;;14.50;13.10;;;;;;;;;;107726;297;39518;-36
2023/09/12 00:12:47;;;;;;;14.40;13.10;;;;;;;;;;107728;297;42514;-36
2023/09/12 00:15:21;;;;;;;14.60;13.20;;;;;;;;;;107711;297;48211;-36
2023/09/12 00:17:54;;;;;;;15.00;13.50;;;;;;;;;;107736;302;38483;-36
2023/09/12 00:20:28;;;;;;;14.40;13.00;;;;;;;;;;107755;297;39437;-36
2023/09/12 00:23:04;;;;;;;15.40;13.90;;;;;;;;;;107769;297;42530;-36
2023/09/12 00:25:37;;;;;;;15.70;14.10;;;;;;;;;;107721;297;49782;-36
2023/09/12 00:28:13;;;;;;;14.40;13.10;;;;;;;;;;107743;297;38679;-36
2023/09/12 00:30:47;;;;;;;14.70;13.30;;;;;;;;;;107764;297;39345;-37
2023/09/12 00:33:20;;;;;;;14.40;13.10;;;;;;;;;;107750;297;42561;-36
2023/09/12 00:35:55;;;;;;;14.20;12.90;;;;;;;;;;107760;297;47338;-36
2023/09/12 00:38:32;;;;;;;15.00;13.60;;;;;;;;;;107768;297;38496;-36
2023/09/12 00:41:16;;;;;;;14.10;12.80;;;;;;;;;;107772;297;39341;-37
2023/09/12 00:43:52;;;;;;;13.90;12.50;;;;;;;;;;107702;297;42775;-37
2023/09/12 00:46:27;;;;;;;15.20;13.80;;;;;;;;;;107705;289;43247;-37
2023/09/12 00:49:04;;;;;;;14.70;13.30;;;;;;;;;;107763;297;40188;-38
2023/09/12 00:51:39;;;;;;;14.40;13.10;;;;;;;;;;107759;297;39594;-38
2023/09/12 00:54:16;;;;;;;14.80;13.40;;;;;;;;;;107693;297;43992;-37
2023/09/12 00:56:49;;;;;;;14.20;12.90;;;;;;;;;;107683;302;41838;-37
2023/09/12 00:59:24;;;;;;;14.20;12.90;;;;;;;;;;107727;297;38498;-37
2023/09/12 01:02:00;;;;;;;14.90;13.50;;;;;;;;;;107727;297;40676;-37
2023/09/12 01:04:36;;;;;;;14.50;13.20;;;;;;;;;;107653;297;42687;-37
2023/09/12 01:07:12;;;;;;;14.10;12.90;;;;;;;;;;107707;297;41994;-37
2023/09/12 01:09:46;;;;;;;15.40;13.90;;;;;;;;;;107742;297;39156;-37
2023/09/12 01:12:22;;;;;;;14.40;13.10;;;;;;;;;;107772;297;39319;-37
2023/09/12 01:14:55;;;;;;;15.00;13.60;;;;;;;;;;107745;297;42642;-37
2023/09/12 01:17:31;;;;;;;14.50;13.20;;;;;;;;;;107724;297;42149;-37
2023/09/12 01:20:15;;;;;;;14.10;12.70;;;;;;;;;;107777;297;38517;-37
2023/09/12 01:23:25;;;;;;;14.20;13.00;;;;;;;;;;107744;297;39348;-37
2023/09/12 01:26:24;;;;;;;14.30;12.90;;;;;;;;;;107707;297;42628;-35
2023/09/12 01:29:05;;;;;;;14.60;13.20;;;;;;;;;;107758;297;42191;-35
2023/09/12 01:31:44;;;;;;;14.60;13.20;;;;;;;;;;107721;297;38628;-36
2023/09/12 01:34:24;;;;;;;14.50;13.20;;;;;;;;;;107729;297;40669;-35
2023/09/12 01:36:59;;;;;;;14.30;12.90;;;;;;;;;;107681;297;48298;-37
2023/09/12 01:39:34;;;;;;;14.80;13.50;;;;;;;;;;107739;297;42110;-36
2023/09/12 01:42:19;;;;;;;15.10;13.70;;;;;;;;;;107743;297;38541;-36
2023/09/12 01:44:59;;;;;;;14.20;13.00;;;;;;;;;;107674;297;39328;-36
2023/09/12 01:47:34;;;;;;;14.70;13.40;;;;;;;;;;107752;297;48722;-36
2023/09/12 01:50:12;;;;;;;14.70;13.40;;;;;;;;;;107751;297;43169;-36
2023/09/12 01:52:49;;;;;;;14.60;13.40;;;;;;;;;;107767;297;38726;-36
2023/09/12 01:55:26;;;;;;;15.20;13.80;;;;;;;;;;107700;297;39504;-36
2023/09/12 01:58:00;;;;;;;14.80;13.50;;;;;;;;;;107742;297;42776;-36
2023/09/12 02:00:35;;;;;;;13.70;12.50;;;;;;;;;;107703;297;41852;-36
2023/09/12 02:03:09;;;;;;;12.80;11.70;;;;;;;;;;107776;297;38527;-36
2023/09/12 02:05:45;;;;;;;15.10;13.80;;;;;;;;;;107712;297;39361;-36
2023/09/12 02:08:18;;;;;;;15.10;13.60;;;;;;;;;;107634;297;175540;-36
2023/09/12 02:10:52;;;;;;;14.90;13.50;;;;;;;;;;107755;297;42091;-36
2023/09/12 02:13:26;;;;;;;14.40;13.20;;;;;;;;;;107738;297;38798;-36
2023/09/12 02:16:04;;;;;;;15.50;14.00;;;;;;;;;;107699;297;39721;-36
2023/09/12 02:18:39;;;;;;;15.90;14.40;;;;;;;;;;107739;297;42972;-36
2023/09/12 02:21:15;;;;;;;15.50;14.10;;;;;;;;;;107606;297;175517;-37
2023/09/12 02:23:51;;;;;;;15.30;13.80;;;;;;;;;;107758;297;38701;-36
2023/09/12 02:26:27;;;;;;;14.60;13.20;;;;;;;;;;107607;297;176350;-36
2023/09/12 02:29:01;;;;;;;15.00;13.60;;;;;;;;;;107744;297;43805;-36
2023/09/12 02:31:36;;;;;;;15.10;13.70;;;;;;;;;;107699;297;41898;-36
2023/09/12 02:34:10;;;;;;;15.00;13.70;;;;;;;;;;107741;297;38685;-36
2023/09/12 02:36:43;;;;;;;15.40;13.90;;;;;;;;;;107685;297;39337;-36
2023/09/12 02:39:17;;;;;;;15.30;13.80;;;;;;;;;;107738;297;43943;-36
2023/09/12 02:41:51;;;;;;;15.00;13.70;;;;;;;;;;107745;297;41992;-37
2023/09/12 02:44:25;;;;;;;15.40;14.00;;;;;;;;;;107749;297;38491;-37
2023/09/12 02:46:59;;;;;;;15.60;14.10;;;;;;;;;;107690;297;39609;-37
2023/09/12 02:49:32;;;;;;;15.60;14.20;;;;;;;;;;107745;297;42509;-37
2023/09/12 02:52:08;;;;;;;15.80;14.30;;;;;;;;;;107742;297;42070;-37
2023/09/12 02:54:42;;;;;;;15.80;14.30;;;;;;;;;;107755;297;38719;-37
2023/09/12 02:57:16;;;;;;;16.10;14.60;;;;;;;;;;107744;297;39325;-37
2023/09/12 02:59:51;;;;;;;16.00;14.60;;;;;;;;;;107734;297;42549;-37
2023/09/12 03:02:24;;;;;;;16.00;14.60;;;;;;;;;;107765;297;42063;-37
2023/09/12 03:04:59;;;;;;;15.90;14.50;;;;;;;;;;107751;297;38666;-37
2023/09/12 03:07:34;;;;;;;15.90;14.40;;;;;;;;;;107713;297;39599;-37
2023/09/12 03:10:17;;;;;;;15.50;14.10;;;;;;;;;;107723;297;43176;-37
2023/09/12 03:12:50;;;;;;;16.20;14.70;;;;;;;;;;107732;297;42154;-37
2023/09/12 03:15:27;;;;;;;16.60;15.00;;;;;;;;;;107759;297;40008;-37
2023/09/12 03:18:01;;;;;;;16.20;14.70;;;;;;;;;;107696;297;39348;-37
2023/09/12 03:20:42;;;;;;;16.70;15.20;;;;;;;;;;107706;297;42524;-37
2023/09/12 03:23:20;;;;;;;16.70;15.20;;;;;;;;;;107744;297;42225;-37
2023/09/12 03:25:53;;;;;;;17.00;15.50;;;;;;;;;;107741;297;39021;-37
2023/09/12 03:28:26;;;;;;;16.70;15.00;;;;;;;;;;107731;297;39433;-37
2023/09/12 03:31:12;;;;;;;17.10;15.50;;;;;;;;;;107745;297;42571;-37
2023/09/12 03:33:50;;;;;;;16.30;14.80;;;;;;;;;;107741;297;41877;-37
2023/09/12 03:36:23;;;;;;;17.70;16.10;;;;;;;;;;107729;297;38501;-37
2023/09/12 03:38:57;;;;;;;18.20;16.50;;;;;;;;;;107581;290;175528;-37
2023/09/12 03:41:30;;;;;;;17.90;16.10;;;;;;;;;;107725;297;42826;-37
2023/09/12 03:44:07;;;;;;;17.70;16.10;;;;;;;;;;107749;297;43216;-37
2023/09/12 03:46:40;;;;;;;17.10;15.50;;;;;;;;;;107596;297;175562;-37
2023/09/12 03:49:14;;;;;;;17.10;15.60;;;;;;;;;;107608;297;175562;-37
2023/09/12 03:51:50;;;;;;;17.40;15.80;;;;;;;;;;107757;297;42520;-37
2023/09/12 03:54:23;;;;;;;18.80;17.00;;;;;;;;;;107740;297;41914;-37
2023/09/12 03:56:58;;;;;;;17.20;15.60;;;;;;;;;;107732;297;38547;-37
2023/09/12 03:59:31;;;;;;;17.40;15.80;;;;;;;;;;107701;297;39656;-37
2023/09/12 04:02:06;;;;;;;17.50;15.70;;;;;;;;;;107756;297;42547;-37
2023/09/12 04:04:41;;;;;;;17.90;16.20;;;;;;;;;;107746;297;42117;-37
2023/09/12 04:07:15;;;;;;;16.80;15.30;;;;;;;;;;107734;297;38520;-37
2023/09/12 04:09:50;;;;;;;17.00;15.30;;;;;;;;;;107650;297;39379;-37
2023/09/12 04:12:23;;;;;;;16.90;15.40;;;;;;;;;;107739;297;43934;-37
2023/09/12 04:14:57;;;;;;;17.20;15.60;;;;;;;;;;107748;297;41887;-37
2023/09/12 04:17:30;;;;;;;17.20;15.70;;;;;;;;;;107731;297;39999;-37
2023/09/12 04:20:05;;;;;;;17.00;15.40;;;;;;;;;;107690;297;40311;-37
2023/09/12 04:22:39;;;;;;;16.50;15.00;;;;;;;;;;107748;297;42510;-36
2023/09/12 04:25:13;;;;;;;16.40;14.90;;;;;;;;;;107758;297;41901;-36
2023/09/12 04:27:52;;;;;;;17.20;15.60;;;;;;;;;;107727;297;38536;-36
2023/09/12 04:30:26;;;;;;;16.80;15.30;;;;;;;;;;107723;297;39348;-36
2023/09/12 04:32:59;;;;;;;16.50;15.00;;;;;;;;;;107760;297;42939;-36
2023/09/12 04:35:39;;;;;;;16.90;15.40;;;;;;;;;;107752;297;41888;-36
2023/09/12 04:38:12;;;;;;;16.90;15.30;;;;;;;;;;107751;297;38677;-36
2023/09/12 04:41:02;;;;;;;16.10;14.60;;;;;;;;;;107846;297;45191;-36
2023/09/12 04:43:40;;;;;;;16.30;14.80;;;;;;;;;;107754;297;42710;-36
2023/09/12 04:46:16;;;;;;;16.30;14.90;;;;;;;;;;107693;297;41813;-36
2023/09/12 04:48:52;;;;;;;16.50;15.00;;;;;;;;;;107713;297;38522;-36
2023/09/12 04:51:26;;;;;;;17.00;15.40;;;;;;;;;;107766;297;39495;-36
2023/09/12 04:54:00;;;;;;;16.70;15.00;;;;;;;;;;107742;297;43911;-36
2023/09/12 04:56:35;;;;;;;16.80;15.30;;;;;;;;;;107753;297;42096;-36
2023/09/12 04:59:14;;;;;;;15.90;14.50;;;;;;;;;;107608;297;40615;-36
2023/09/12 05:01:48;;;;;;;16.20;14.80;;;;;;;;;;107767;297;40786;-36
2023/09/12 05:04:24;;;;;;;15.50;14.20;;;;;;;;;;107730;297;42815;-36
2023/09/12 05:07:02;;;;;;;15.80;14.40;;;;;;;;;;107725;297;41895;-36
2023/09/12 05:09:38;;;;;;;15.70;14.30;;;;;;;;;;107481;297;329103;-37
2023/09/12 05:12:15;;;;;;;15.90;14.50;;;;;;;;;;107731;297;39345;-37
2023/09/12 05:14:49;;;;;;;15.80;14.30;;;;;;;;;;107737;297;42670;-37
2023/09/12 05:17:22;;;;;;;15.40;14.10;;;;;;;;;;107752;297;42022;-36
2023/09/12 05:19:56;;;;;;;15.00;13.60;;;;;;;;;;107702;297;38503;-37
2023/09/12 07:50:51;;;;;;;16.10;14.40;;;;;;;;;;107072;298;559950;-36
2023/09/12 07:53:55;;;;;;;15.90;14.20;;;;;;;;;;107211;295;561170;-36
2023/09/12 07:56:30;;;;;;;16.40;14.50;;;;;;;;;;108784;279;42647;-37
2023/09/12 07:59:04;;;;;;;16.90;14.30;;;;;;;;;;109092;276;41840;-37
2023/09/12 08:01:37;;;;;;;15.30;13.80;;;;;;;;;;109433;273;39784;-37
2023/09/12 08:04:11;;;;;;;17.40;14.90;;;;;;;;;;109515;273;39305;-36
2023/09/12 08:06:45;;;;;;;17.50;14.00;;;;;;;;;;109330;271;384086;-37
2023/09/12 08:09:52;;;;;;;15.70;14.00;;;;;;;;;;109594;271;42114;-37
2023/09/12 08:12:28;;;;;;;15.50;13.80;;;;;;;;;;109832;271;38493;-36
2023/09/12 08:15:01;;;;;;;14.80;13.30;;;;;;;;;;109856;271;40250;-36
2023/09/12 08:17:35;;;;;;;15.00;13.40;;;;;;;;;;109825;271;42337;-35
2023/09/12 08:20:12;;;;;;;14.40;13.00;;;;;;;;;;109825;267;41976;-36
2023/09/12 08:22:45;;;;;;;14.40;12.80;;;;;;;;;;109870;271;38463;-36
2023/09/12 08:25:19;;;;;;;14.40;13.00;;;;;;;;;;109818;267;39403;-36
2023/09/12 08:27:52;;;;;;;14.10;12.80;;;;;;;;;;109811;271;43910;-34
2023/09/12 08:30:28;;;;;;;14.00;12.60;;;;;;;;;;109850;267;42061;-34
2023/09/12 08:33:03;;;;;;;14.60;13.10;;;;;;;;;;109823;267;39804;-35
2023/09/12 08:35:37;;;;;;;13.80;12.50;;;;;;;;;;109772;271;45335;-37
2023/09/12 08:38:11;;;;;;;14.10;12.70;;;;;;;;;;109754;267;42475;-37
2023/09/12 08:40:52;;;;;;;13.90;12.40;;;;;;;;;;109808;271;42972;-37
2023/09/12 08:43:25;;;;;;;13.40;12.00;;;;;;;;;;109780;271;39792;-37
2023/09/12 08:46:02;;;;;;;14.10;12.80;;;;;;;;;;109782;271;39495;-37
2023/09/12 08:48:37;;;;;;;13.80;12.40;;;;;;;;;;109829;271;42635;-37
2023/09/12 08:51:13;;;;;;;13.60;12.20;;;;;;;;;;109808;267;43567;-37
2023/09/12 08:53:47;;;;;;;13.00;11.60;;;;;;;;;;109796;269;38432;-38
2023/09/12 08:56:21;;;;;;;13.60;12.20;;;;;;;;;;109826;263;45742;-38
2023/09/12 08:58:57;;;;;;;13.40;12.10;;;;;;;;;;109837;267;42584;-38
2023/09/12 09:01:35;;;;;;;13.80;12.50;;;;;;;;;;109797;271;42007;-38
2023/09/12 09:04:10;;;;;;;13.20;11.90;;;;;;;;;;109740;268;39795;-38
2023/09/12 09:06:44;;;;;;;13.30;12.00;;;;;;;;;;109787;271;39621;-39
2023/09/12 09:09:19;;;;;;;12.80;11.60;;;;;;;;;;109804;263;43745;-38
2023/09/12 09:11:53;;;;;;;13.20;11.90;;;;;;;;;;109851;263;41787;-36
2023/09/12 09:14:27;;;;;;;12.60;11.30;;;;;;;;;;109754;267;38624;-36
2023/09/12 09:17:02;;;;;;;12.70;11.50;;;;;;;;;;109834;270;39288;-35
2023/09/12 09:19:46;;;;;;;12.90;11.60;;;;;;;;;;109830;270;43920;-35
2023/09/12 09:22:23;;;;;;;13.10;11.60;;;;;;;;;;109829;270;41846;-35
2023/09/12 09:25:14;;;;;;;12.90;11.30;;;;;;;;;;109741;263;38452;-36
2023/09/12 09:27:49;;;;;;;12.20;11.00;;;;;;;;;;109816;267;39693;-36
2023/09/12 09:30:42;;;;;;;12.40;11.20;;;;;;;;;;109829;270;42722;-36
2023/09/12 09:33:18;;;;;;;12.10;10.80;;;;;;;;;;109781;270;42026;-36
2023/09/12 09:35:53;;;;;;;11.90;10.80;;;;;;;;;;109769;267;38433;-36
2023/09/12 09:38:28;;;;;;;11.80;10.70;;;;;;;;;;109612;268;39490;-36
2023/09/12 09:41:01;;;;;;;11.90;10.70;;;;;;;;;;109835;270;42393;-36
2023/09/12 09:43:35;;;;;;;11.70;10.60;;;;;;;;;;109839;270;41999;-35
2023/09/12 09:46:09;;;;;;;12.30;10.60;;;;;;;;;;109835;263;38442;-35
2023/09/12 09:48:53;;;;;;;11.60;10.40;;;;;;;;;;109945;266;39625;-36
2023/09/12 09:51:29;;;;;;;12.10;10.90;;;;;;;;;;109966;270;42653;-36
2023/09/12 09:54:10;;;;;;;11.30;10.20;;;;;;;;;;109950;270;41822;-36
2023/09/12 09:56:52;;;;;;;11.10;10.00;;;;;;;;;;109969;266;38653;-36
2023/09/12 09:59:37;;;;;;;11.20;10.20;;;;;;;;;;109772;270;39355;-35
2023/09/12 10:02:22;;;;;;;11.70;10.60;;;;;;;;;;109982;262;42628;-36
2023/09/12 10:04:58;;;;;;;11.20;10.10;;;;;;;;;;109967;262;42032;-36
2023/09/12 10:07:36;;;;;;;11.70;10.60;;;;;;;;;;109786;262;44500;-37
2023/09/12 10:10:12;;;;;;;12.10;10.90;;;;;;;;;;110008;270;39292;-36
2023/09/12 10:12:53;;;;;;;11.90;10.90;;;;;;;;;;109958;266;42460;-36
2023/09/12 10:15:31;;;;;;;11.40;10.30;;;;;;;;;;109962;270;42070;-35
2023/09/12 10:18:11;;;;;;;11.70;10.60;;;;;;;;;;109710;270;46208;-37
2023/09/12 10:20:51;;;;;;;;;;;;;;;;;;109829;262;174329;-39
2023/09/12 10:23:36;;;;;;;11.40;10.30;;;;;;;;;;109958;266;42653;-41
2023/09/12 10:26:13;;;;;;;11.40;10.30;;;;;;;;;;109677;264;41786;-36
2023/09/12 10:32:04;;;;;;;11.90;10.10;;;;;;;;;;110501;263;39714;-49
2023/09/12 10:34:39;;;;;;;11.10;10.00;;;;;;;;;;109817;265;42984;-38
2023/09/12 10:37:38;;;;;;;11.30;10.20;;;;;;;;;;109630;264;42189;-43
2023/09/12 10:40:20;;;;;;;10.90;9.80;;;;;;;;;;110270;270;46067;-39
2023/09/12 10:42:56;;;;;;;11.20;10.10;;;;;;;;;;109765;265;39575;-37
2023/09/12 10:45:30;;;;;;;10.90;9.80;;;;;;;;;;109798;265;42482;-41
2023/09/12 10:48:19;;;;;;;11.00;10.00;;;;;;;;;;109636;265;42010;-44
2023/09/12 10:50:58;;;;;;;11.00;9.90;;;;;;;;;;110064;267;38974;-46
2023/09/12 10:53:53;;;;;;;11.60;10.60;;;;;;;;;;109412;265;40024;-37
2023/09/12 10:56:32;;;;;;;11.60;10.40;;;;;;;;;;109313;266;43869;-37
2023/09/12 10:59:17;;;;;;;11.00;9.90;;;;;;;;;;109318;266;42226;-37
2023/09/12 11:01:50;;;;;;;11.60;10.50;;;;;;;;;;109349;269;38709;-37
2023/09/12 11:04:37;;;;;;;11.70;10.50;;;;;;;;;;109336;266;40936;-37
2023/09/12 11:07:45;;;;;;;11.10;10.10;;;;;;;;;;109297;266;42779;-37
2023/09/12 11:10:24;;;;;;;11.00;10.00;;;;;;;;;;109320;265;42468;-37
2023/09/12 11:12:59;;;;;;;10.70;9.70;;;;;;;;;;109375;266;38919;-37
2023/09/12 11:15:34;;;;;;;11.00;9.90;;;;;;;;;;109383;271;39581;-39
2023/09/12 11:18:09;;;;;;;11.00;10.00;;;;;;;;;;109373;266;43259;-37
2023/09/12 11:21:03;;;;;;;11.00;9.90;;;;;;;;;;109271;267;42233;-38
2023/09/12 11:23:39;;;;;;;10.60;9.60;;;;;;;;;;109355;266;38776;-38
2023/09/12 11:26:15;;;;;;;10.90;9.80;;;;;;;;;;109304;266;41169;-37
2023/09/12 11:28:48;;;;;;;11.60;10.40;;;;;;;;;;109321;266;42834;-36
2023/09/12 11:31:57;;;;;;;12.30;11.10;;;;;;;;;;109331;265;41970;-37
2023/09/12 11:34:37;;;;;;;11.70;10.60;;;;;;;;;;109269;266;39016;-37
2023/09/12 11:37:11;;;;;;;11.70;10.60;;;;;;;;;;109390;266;40635;-36
2023/09/12 11:39:44;;;;;;;11.70;10.60;;;;;;;;;;109286;266;42688;-37
2023/09/12 11:42:18;;;;;;;11.70;10.60;;;;;;;;;;109344;266;43437;-37
2023/09/12 11:44:53;;;;;;;13.20;10.00;;;;;;;;;;109283;273;45544;-36
2023/09/12 11:47:27;;;;;;;12.60;11.40;;;;;;;;;;109366;273;39471;-35
2023/09/12 11:50:00;;;;;;;11.90;10.80;;;;;;;;;;109350;271;42918;-37
2023/09/12 11:52:38;;;;;;;11.80;10.60;;;;;;;;;;109381;270;41819;-37
2023/09/12 11:55:12;;;;;;;12.00;10.90;;;;;;;;;;109357;265;45846;-36
2023/09/12 11:57:45;;;;;;;12.10;11.00;;;;;;;;;;109359;266;40842;-35
2023/09/12 12:00:20;;;;;;;11.80;10.80;;;;;;;;;;109335;266;42827;-36
2023/09/12 12:02:56;;;;;;;12.30;11.20;;;;;;;;;;109313;270;42077;-35
2023/09/12 12:05:29;;;;;;;12.00;10.90;;;;;;;;;;109370;271;44564;-35
2023/09/12 12:08:04;;;;;;;12.50;11.20;;;;;;;;;;109327;269;39277;-35
2023/09/12 12:10:41;;;;;;;12.40;11.30;;;;;;;;;;109473;265;42883;-35
2023/09/12 12:13:18;;;;;;;11.60;10.50;;;;;;;;;;109413;273;41819;-35
2023/09/12 12:15:52;;;;;;;12.30;11.20;;;;;;;;;;109387;265;44560;-35
2023/09/12 12:18:26;;;;;;;12.70;11.60;;;;;;;;;;109385;270;39602;-35
2023/09/12 12:21:01;;;;;;;12.50;11.30;;;;;;;;;;109175;274;175274;-36
2023/09/12 12:23:35;;;;;;;12.50;11.30;;;;;;;;;;109335;274;43351;-35
2023/09/12 12:26:10;;;;;;;12.80;11.60;;;;;;;;;;109354;266;44351;-35
2023/09/12 12:28:44;;;;;;;12.40;11.30;;;;;;;;;;109384;274;39611;-36
2023/09/12 12:31:17;;;;;;;13.00;11.80;;;;;;;;;;109330;266;42759;-35
2023/09/12 12:33:53;;;;;;;12.60;11.50;;;;;;;;;;109456;273;42161;-35
2023/09/12 12:36:46;;;;;;;12.80;11.60;;;;;;;;;;109321;273;45776;-35
2023/09/12 12:39:30;;;;;;;13.00;11.80;;;;;;;;;;109313;266;39637;-37
2023/09/12 12:42:04;;;;;;;12.50;11.30;;;;;;;;;;109309;274;43991;-36
2023/09/12 12:44:40;;;;;;;13.00;11.90;;;;;;;;;;109326;266;43363;-36
2023/09/12 12:47:14;;;;;;;13.10;11.90;;;;;;;;;;109347;273;45234;-36
2023/09/12 12:49:51;;;;;;;12.60;11.40;;;;;;;;;;108695;270;892233;-38
2023/09/12 12:52:28;;;;;;;12.80;11.70;;;;;;;;;;109821;270;43928;-37
2023/09/12 12:55:10;;;;;;;13.00;11.80;;;;;;;;;;109788;270;41902;-36
2023/09/12 12:57:44;;;;;;;13.30;12.10;;;;;;;;;;109854;267;46152;-37
2023/09/12 13:00:20;;;;;;;13.40;12.20;;;;;;;;;;109880;266;40631;-37
2023/09/12 13:02:54;;;;;;;13.50;12.20;;;;;;;;;;109854;270;42848;-38
2023/09/12 13:05:32;;;;;;;13.40;12.20;;;;;;;;;;109865;262;42087;-38
2023/09/12 13:08:06;;;;;;;13.10;11.90;;;;;;;;;;109726;265;44924;-39
2023/09/12 13:10:42;;;;;;;13.40;12.20;;;;;;;;;;109792;263;175313;-38
2023/09/12 13:13:16;;;;;;;13.30;12.10;;;;;;;;;;109792;263;42478;-38
2023/09/12 13:15:49;;;;;;;13.20;12.00;;;;;;;;;;109794;266;43266;-38
2023/09/12 13:18:23;;;;;;;13.20;12.00;;;;;;;;;;109755;265;45030;-37
2023/09/12 13:20:57;;;;;;;13.20;12.00;;;;;;;;;;109781;263;39336;-37
2023/09/12 13:23:33;;;;;;;13.10;11.90;;;;;;;;;;109833;270;42497;-37
2023/09/12 13:26:09;;;;;;;13.40;12.20;;;;;;;;;;109986;262;43401;-37
2023/09/12 13:28:45;;;;;;;13.60;12.40;;;;;;;;;;109979;270;44923;-37
2023/09/12 13:31:21;;;;;;;13.60;12.40;;;;;;;;;;110105;262;39706;-36
2023/09/12 13:33:54;;;;;;;13.20;12.00;;;;;;;;;;109947;262;42681;-37
2023/09/12 13:36:28;;;;;;;13.70;12.50;;;;;;;;;;109909;262;175338;-37
2023/09/12 13:39:03;;;;;;;12.90;11.70;;;;;;;;;;110052;266;45032;-37
2023/09/12 13:41:40;;;;;;;13.30;12.10;;;;;;;;;;110062;262;39671;-37
2023/09/12 13:44:15;;;;;;;13.40;12.20;;;;;;;;;;110036;262;42930;-37
2023/09/12 13:46:49;;;;;;;13.50;12.30;;;;;;;;;;110011;269;43365;-37
2023/09/12 13:49:23;;;;;;;12.90;11.80;;;;;;;;;;110069;265;44913;-37
2023/09/12 13:51:56;;;;;;;13.30;12.10;;;;;;;;;;109978;266;39661;-37
2023/09/12 13:54:29;;;;;;;13.30;12.10;;;;;;;;;;110058;269;42452;-37
2023/09/12 13:57:03;;;;;;;13.20;12.00;;;;;;;;;;110034;266;42070;-37
2023/09/12 13:59:37;;;;;;;13.50;12.30;;;;;;;;;;110010;270;44798;-37
2023/09/12 14:02:20;;;;;;;13.10;11.90;;;;;;;;;;110051;262;39541;-37
2023/09/12 14:04:54;;;;;;;13.30;12.10;;;;;;;;;;110029;265;42900;-37
2023/09/12 14:07:45;;;;;;;13.20;12.10;;;;;;;;;;110000;266;41860;-37
2023/09/12 14:10:21;;;;;;;13.30;11.90;;;;;;;;;;110009;262;39004;-36
2023/09/12 14:13:09;;;;;;;13.00;11.80;;;;;;;;;;110024;267;40618;-36
2023/09/12 14:15:54;;;;;;;13.50;12.30;;;;;;;;;;109926;262;43281;-37
2023/09/12 14:18:30;;;;;;;13.00;11.80;;;;;;;;;;109973;262;42098;-36
2023/09/12 14:21:06;;;;;;;12.30;11.20;;;;;;;;;;110030;262;38824;-35
2023/09/12 14:23:40;;;;;;;13.40;12.20;;;;;;;;;;109998;270;39819;-36
2023/09/12 14:26:14;;;;;;;12.70;11.50;;;;;;;;;;110032;269;42463;-36
2023/09/12 14:28:48;;;;;;;12.50;11.40;;;;;;;;;;110030;269;42334;-37
2023/09/12 14:31:23;;;;;;;13.10;11.80;;;;;;;;;;110021;262;38842;-38
2023/09/12 14:33:57;;;;;;;13.40;12.10;;;;;;;;;;109964;269;39473;-37
2023/09/12 14:36:31;;;;;;;13.30;12.10;;;;;;;;;;110034;262;43967;-38
2023/09/12 14:39:06;;;;;;;13.40;12.10;;;;;;;;;;110028;262;41837;-37
2023/09/12 14:41:39;;;;;;;13.20;12.10;;;;;;;;;;110086;270;38852;-38
2023/09/12 14:44:12;;;;;;;13.50;12.30;;;;;;;;;;110025;262;39576;-38
2023/09/12 14:46:46;;;;;;;13.50;12.30;;;;;;;;;;110074;266;42640;-37
2023/09/12 14:49:20;;;;;;;13.30;12.10;;;;;;;;;;110003;269;43544;-37
2023/09/12 14:51:55;;;;;;;13.70;12.50;;;;;;;;;;110043;262;38735;-37
2023/09/12 14:54:28;;;;;;;13.50;12.40;;;;;;;;;;109976;262;39759;-37
2023/09/12 14:57:02;;;;;;;13.80;12.60;;;;;;;;;;110065;267;42775;-38
2023/09/12 14:59:36;;;;;;;13.20;12.10;;;;;;;;;;109994;266;43391;-38
2023/09/12 15:02:10;;;;;;;13.50;12.30;;;;;;;;;;110028;262;38836;-37
2023/09/12 15:04:44;;;;;;;13.60;12.30;;;;;;;;;;110065;262;39349;-37
2023/09/12 15:07:18;;;;;;;13.80;12.60;;;;;;;;;;109923;270;175386;-37
2023/09/12 15:09:51;;;;;;;13.40;12.20;;;;;;;;;;109981;262;42087;-39
2023/09/12 15:12:25;;;;;;;14.10;12.70;;;;;;;;;;110033;266;39695;-37
2023/09/12 15:14:58;;;;;;;13.70;12.40;;;;;;;;;;110048;262;39653;-38
2023/09/12 15:17:32;;;;;;;13.20;12.00;;;;;;;;;;110032;262;44013;-38
2023/09/12 15:20:09;;;;;;;13.20;12.00;;;;;;;;;;109805;263;42042;-38
2023/09/12 15:22:44;;;;;;;13.40;12.20;;;;;;;;;;109995;262;39031;-37
2023/09/12 15:25:18;;;;;;;13.00;11.80;;;;;;;;;;110009;265;39733;-37
2023/09/12 15:27:51;;;;;;;13.60;12.40;;;;;;;;;;110009;269;42756;-37
2023/09/12 15:30:25;;;;;;;14.00;12.70;;;;;;;;;;110001;266;42086;-38
2023/09/12 15:32:58;;;;;;;14.40;13.00;;;;;;;;;;110041;262;39100;-38
2023/09/12 15:35:32;;;;;;;13.30;12.10;;;;;;;;;;110047;269;39717;-37
2023/09/12 15:38:06;;;;;;;13.30;12.20;;;;;;;;;;110007;262;42890;-38
2023/09/12 15:40:40;;;;;;;14.00;12.70;;;;;;;;;;109992;262;43500;-37
2023/09/12 15:43:13;;;;;;;13.50;12.20;;;;;;;;;;110028;270;38503;-37
2023/09/12 15:45:56;;;;;;;13.00;11.90;;;;;;;;;;110037;262;42032;-37
2023/09/12 15:48:29;;;;;;;13.60;12.40;;;;;;;;;;110049;266;43824;-37
2023/09/12 15:51:05;;;;;;;13.40;12.10;;;;;;;;;;109996;269;43390;-36
2023/09/12 15:53:38;;;;;;;13.30;12.00;;;;;;;;;;110057;267;38432;-36
2023/09/12 15:56:11;;;;;;;13.20;12.00;;;;;;;;;;110000;262;39618;-36
2023/09/12 15:58:50;;;;;;;12.70;11.50;;;;;;;;;;110017;262;43963;-36
2023/09/12 16:01:24;;;;;;;13.30;12.10;;;;;;;;;;110002;269;43229;-36
2023/09/12 16:03:59;;;;;;;12.90;11.70;;;;;;;;;;110059;266;39797;-36
2023/09/12 16:06:33;;;;;;;12.70;11.60;;;;;;;;;;109793;266;284542;-36
2023/09/12 16:09:06;;;;;;;13.00;11.80;;;;;;;;;;109826;266;43997;-36
2023/09/12 16:11:41;;;;;;;12.70;11.50;;;;;;;;;;109946;263;42263;-36
2023/09/12 16:14:15;;;;;;;13.40;12.10;;;;;;;;;;110024;269;39771;-36
2023/09/12 16:16:48;;;;;;;12.70;11.50;;;;;;;;;;109828;270;175316;-36
2023/09/12 16:19:21;;;;;;;13.00;11.90;;;;;;;;;;110043;269;42473;-36
2023/09/12 16:21:54;;;;;;;12.70;11.60;;;;;;;;;;109957;266;42113;-36
2023/09/12 16:24:29;;;;;;;13.60;12.40;;;;;;;;;;110037;266;39803;-36
2023/09/12 16:27:03;;;;;;;13.20;12.10;;;;;;;;;;110043;270;39614;-36
2023/09/12 16:29:37;;;;;;;13.20;12.10;;;;;;;;;;110009;267;42776;-37
2023/09/12 16:32:12;;;;;;;13.70;12.40;;;;;;;;;;109969;270;42241;-37
2023/09/12 16:34:45;;;;;;;13.70;12.40;;;;;;;;;;110037;262;38642;-37
2023/09/12 16:37:20;;;;;;;13.70;12.50;;;;;;;;;;110065;269;39769;-37
2023/09/12 16:39:53;;;;;;;13.70;12.50;;;;;;;;;;110057;269;42665;-37
2023/09/12 16:42:27;;;;;;;13.80;12.60;;;;;;;;;;110003;270;43408;-37
2023/09/12 16:45:02;;;;;;;14.10;12.80;;;;;;;;;;110004;270;38696;-37
2023/09/12 16:47:36;;;;;;;14.00;12.80;;;;;;;;;;109779;267;39659;-37
2023/09/12 16:50:11;;;;;;;14.50;13.30;;;;;;;;;;110066;270;42930;-37
2023/09/12 16:52:45;;;;;;;13.90;12.60;;;;;;;;;;109735;263;42069;-37
2023/09/12 16:55:18;;;;;;;14.30;13.00;;;;;;;;;;109818;263;38694;-36
2023/09/12 16:57:52;;;;;;;14.20;13.00;;;;;;;;;;109788;267;39345;-36
2023/09/12 17:00:25;;;;;;;14.50;13.20;;;;;;;;;;109758;262;42811;-36
2023/09/12 17:02:59;;;;;;;14.30;13.10;;;;;;;;;;109803;263;41838;-36
2023/09/12 17:05:33;;;;;;;14.50;13.30;;;;;;;;;;109883;262;39142;-36
2023/09/12 17:08:08;;;;;;;14.20;13.00;;;;;;;;;;109789;271;39301;-36
2023/09/12 17:10:41;;;;;;;13.80;12.70;;;;;;;;;;109663;265;43918;-36
2023/09/12 17:13:15;;;;;;;14.10;12.90;;;;;;;;;;109796;267;47653;-36
2023/09/12 17:15:51;;;;;;;14.50;13.20;;;;;;;;;;109840;270;39971;-37
2023/09/12 17:18:24;;;;;;;15.50;14.10;;;;;;;;;;109571;268;40753;-38
2023/09/12 17:20:59;;;;;;;14.80;13.50;;;;;;;;;;109797;263;43258;-38
2023/09/12 17:23:37;;;;;;;15.10;13.80;;;;;;;;;;109580;264;49672;-38
2023/09/12 17:26:11;;;;;;;15.50;14.20;;;;;;;;;;109545;268;39132;-38
2023/09/12 17:28:46;;;;;;;14.90;13.60;;;;;;;;;;109741;271;39761;-37
2023/09/12 17:31:21;;;;;;;15.30;14.00;;;;;;;;;;109815;262;42682;-38
2023/09/12 17:33:57;;;;;;;15.50;14.10;;;;;;;;;;109833;270;48028;-36
2023/09/12 17:36:33;;;;;;;15.20;13.90;;;;;;;;;;109781;270;39836;-37
2023/09/12 17:39:07;;;;;;;15.20;13.80;;;;;;;;;;109837;270;40075;-37
2023/09/12 17:41:44;;;;;;;15.10;13.70;;;;;;;;;;109887;267;44249;-37